Marrakech, Morocco
Current Conditions -  °F | °C
As of 12:00 AM on Thursday 18 Dec 2014 (Local Time) from GMMX Reporting Station
Clear Clear  
Wind Chill: 50°   Ceiling: Unl
Heat Index: 50°   Visibility: 6mi
Dew Point: 50°   Wind: 5mph
Humidity: 100%   Direction: 90°E
Pressure: 30.27"   Gusts: NA
Location:  31.63°N, 8°W
Report Text: GMMX 172300Z 09004KT CAVOK 10/10 Q1025 NOSIG
Loading
Personal Weather Stations






























Interactive Weather Map New forecast layout! Learn more

10-Day Weather Forecast

Advertisements
Track Severe Weather on mobile